首页
METAR-TAF:

METAR-TAF

机场 :

蒙蒂基亚里

布雷西亚, 意大利

纬度: 45-24-02N, 经度: 010-18-59E, 海拔: 104米

当前天气观测

该预报发布于1小时和20分钟前的02:50 UTC
风速11节,风向东北
温度 7°C
湿度 70%
气压 1008 hPa
能见度10公里或以上
1500米以下无云,无积雨云

METAR: LIPO 140250Z 05011KT CAVOK 07/02 Q1008

时间: 05:10 (04:10 UTC)

预报

该预报发布于5小时和10分钟前的23:00 UTC
预报有效从14日的 00点(UTC)到 14日的 24点(UTC)
风速5节,风向多变
能見度: 6000
成为
从 14日的 02点(UTC)到 14日的 04点(UTC)
能見度: 3000
轻雾
成为
从 14日的 07点(UTC)到 14日的 10点(UTC)
能見度: 7000
成为
从 14日的 15点(UTC)到 14日的 18点(UTC)
风速10节,风向

TAF: LIPO 132300Z 1400/1424 VRB05KT 6000 NSC BECMG 1402/1404 3000 BR BECMG 1407/1410 7000 BECMG 1415/1418 10010KT

超过4000个机场的气象观测和天气预报(METAR&TAF报告)。

可查询的气象台以黄色和红色小点在地图上表示。

将鼠标移到小点上方,可查看气象台名称。

然后点击查看天气观测和预报。

如需切换地图:点击带黑十字的绿色按钮放大地图;点击带横线的绿色按钮缩小地图;或者点击绿色箭头查看邻近地区的地图。


METAR-TAF: